createdAt,value
2022-12-24T00:04:16.323Z,13.70
2022-12-24T00:09:19.179Z,13.77
2022-12-24T00:14:22.087Z,13.80
2022-12-24T00:19:24.922Z,14.53
2022-12-24T00:24:27.772Z,13.17
2022-12-24T00:29:30.636Z,9.43
2022-12-24T05:31:39.506Z,12.87
2022-12-24T05:36:42.680Z,13.63
2022-12-24T05:41:46.157Z,18.80
2022-12-24T05:46:49.101Z,15.50
2022-12-24T05:51:51.920Z,17.37
2022-12-24T05:56:54.747Z,19.13
2022-12-24T06:01:57.642Z,18.53
2022-12-24T06:07:00.700Z,19.03
2022-12-24T06:12:03.651Z,17.27
2022-12-24T06:17:06.501Z,21.00
2022-12-24T06:22:09.444Z,19.53
2022-12-24T06:27:12.299Z,20.27
2022-12-24T06:32:15.277Z,17.03
2022-12-24T06:37:18.529Z,16.50
2022-12-24T06:42:21.451Z,19.77
2022-12-24T06:47:24.343Z,18.30
2022-12-24T06:52:27.161Z,24.83
2022-12-24T06:57:31.867Z,19.57
2022-12-24T07:02:34.814Z,14.77
2022-12-24T07:07:39.234Z,15.10
2022-12-24T07:12:42.590Z,16.77
2022-12-24T07:17:45.551Z,22.47
2022-12-24T07:22:48.500Z,16.03
2022-12-24T07:27:51.323Z,18.17
2022-12-24T07:32:54.165Z,19.13
2022-12-24T07:37:57.060Z,16.20
2022-12-24T07:42:59.882Z,16.13
2022-12-24T07:48:02.815Z,15.13
2022-12-24T07:53:05.639Z,16.47
2022-12-24T07:58:08.446Z,14.70
2022-12-24T08:03:18.006Z,18.13
2022-12-24T08:08:21.981Z,16.50
2022-12-24T08:13:24.847Z,18.00
2022-12-24T08:18:27.878Z,16.90
2022-12-24T08:23:30.850Z,15.50
2022-12-24T08:28:33.759Z,18.57
2022-12-24T08:33:36.528Z,16.97
2022-12-24T08:38:39.369Z,17.57
2022-12-24T08:43:42.230Z,12.67
2022-12-24T08:48:45.189Z,18.43
2022-12-24T08:53:48.048Z,15.37
2022-12-24T08:58:50.957Z,16.77
2022-12-24T09:03:53.824Z,14.60
2022-12-24T09:08:57.948Z,16.10
2022-12-24T09:14:00.984Z,11.53
2022-12-24T09:19:03.888Z,11.70
2022-12-24T09:24:07.092Z,14.97
2022-12-24T09:29:11.395Z,17.67
2022-12-24T09:34:14.243Z,12.63
2022-12-24T09:39:17.149Z,14.43
2022-12-24T09:44:46.274Z,17.93
2022-12-24T09:49:51.769Z,14.33
2022-12-24T09:55:14.431Z,18.83
2022-12-24T10:00:26.366Z,17.10
2022-12-24T10:05:41.827Z,12.93
2022-12-24T10:10:55.931Z,13.17
2022-12-24T10:16:10.735Z,12.83
2022-12-24T10:21:51.920Z,10.63
2022-12-24T10:27:01.495Z,11.87
2022-12-24T10:32:10.422Z,8.50
2022-12-24T10:37:28.617Z,8.47
2022-12-24T10:42:50.171Z,12.80
2022-12-24T10:47:57.695Z,10.90
2022-12-24T10:53:25.652Z,11.47
2022-12-24T10:58:28.527Z,11.80
2022-12-24T11:03:40.415Z,11.90
2022-12-24T11:08:45.347Z,10.57
2022-12-24T11:13:57.151Z,11.97
2022-12-24T11:19:01.906Z,7.50
2022-12-24T11:24:13.701Z,9.27
2022-12-24T11:29:23.363Z,11.17
2022-12-24T11:34:31.580Z,11.07
2022-12-24T11:39:41.285Z,9.20
2022-12-24T11:44:53.226Z,6.13
2022-12-24T11:50:12.903Z,8.67
2022-12-24T11:55:31.975Z,7.60
2022-12-24T12:00:34.817Z,8.77
2022-12-24T12:05:39.441Z,10.50
2022-12-24T12:10:43.989Z,11.20
2022-12-24T12:15:52.012Z,9.67
2022-12-24T12:21:05.302Z,9.07
2022-12-24T12:26:24.297Z,10.43
2022-12-24T12:31:47.568Z,10.63
2022-12-24T12:37:15.699Z,11.57
2022-12-24T12:42:34.295Z,11.87
2022-12-24T12:47:54.651Z,11.70
2022-12-24T12:53:31.307Z,12.50
2022-12-24T12:58:49.892Z,11.10
2022-12-24T13:04:20.550Z,10.47
2022-12-24T13:09:43.270Z,11.60
2022-12-24T13:15:16.821Z,18.07
2022-12-24T13:20:25.607Z,12.70
2022-12-24T13:25:39.610Z,11.23
2022-12-24T13:30:42.809Z,11.47
2022-12-24T13:36:19.506Z,14.73
2022-12-24T13:41:41.104Z,12.77
2022-12-24T13:47:18.447Z,11.87
2022-12-24T13:52:27.429Z,15.60
2022-12-24T13:57:40.155Z,15.03
2022-12-24T14:02:55.213Z,19.73
2022-12-24T14:07:59.441Z,16.50
2022-12-24T14:13:02.447Z,18.30
2022-12-24T14:18:06.274Z,17.03
2022-12-24T14:23:24.043Z,14.70
2022-12-24T14:28:38.919Z,14.77
2022-12-24T14:33:41.842Z,18.47
2022-12-24T14:38:46.102Z,18.20
2022-12-24T14:44:30.894Z,19.87
2022-12-24T14:50:14.153Z,16.93
2022-12-24T14:55:44.554Z,19.57
2022-12-24T15:00:47.489Z,17.83
2022-12-24T15:06:06.438Z,16.63
2022-12-24T15:11:10.323Z,17.17
2022-12-24T15:16:21.319Z,21.00
2022-12-24T15:21:44.521Z,22.10
2022-12-24T15:26:47.333Z,25.70
2022-12-24T15:31:58.238Z,33.47
2022-12-24T15:37:05.115Z,29.00
2022-12-24T15:42:15.409Z,25.27
2022-12-24T15:47:25.755Z,24.93
2022-12-24T15:52:28.646Z,27.93
2022-12-24T15:57:33.413Z,26.17
2022-12-24T16:02:40.500Z,19.30
2022-12-24T16:08:03.540Z,23.63
2022-12-24T16:13:36.225Z,22.80
2022-12-24T16:18:59.045Z,22.17
2022-12-24T16:24:19.325Z,19.87
2022-12-24T16:29:27.276Z,15.17
2022-12-24T16:34:31.590Z,18.37
2022-12-24T16:39:35.418Z,22.17
2022-12-24T16:44:38.356Z,24.73
2022-12-24T16:49:41.429Z,25.43
2022-12-24T16:54:44.318Z,20.87
2022-12-24T16:59:47.276Z,26.50
2022-12-24T17:04:50.108Z,21.87
2022-12-24T17:09:52.933Z,25.97
2022-12-24T17:14:55.791Z,24.83
2022-12-24T17:19:58.606Z,23.27
2022-12-24T17:25:01.468Z,26.33
2022-12-24T17:30:05.024Z,21.57
2022-12-24T17:35:08.766Z,25.47
2022-12-24T17:40:12.108Z,15.83
2022-12-24T17:45:15.083Z,17.33
2022-12-24T17:50:18.055Z,17.47
2022-12-24T17:55:22.564Z,19.90
2022-12-24T18:00:31.042Z,21.53
2022-12-24T18:05:35.887Z,18.93
2022-12-24T18:10:38.727Z,21.93
2022-12-24T18:15:41.736Z,17.00
2022-12-24T18:20:47.038Z,21.17
2022-12-24T18:25:50.011Z,22.47
2022-12-24T18:31:04.142Z,20.27
2022-12-24T18:36:07.855Z,20.10
2022-12-24T18:41:13.264Z,20.20
2022-12-24T18:46:19.238Z,17.97
2022-12-24T18:51:23.571Z,23.10
2022-12-24T18:56:27.336Z,21.83
2022-12-24T19:01:33.097Z,19.37
2022-12-24T19:06:36.388Z,13.87
2022-12-24T19:11:40.116Z,22.47
2022-12-24T19:16:43.078Z,17.97
2022-12-24T19:21:45.988Z,18.93
2022-12-24T19:26:48.955Z,17.10
2022-12-24T19:31:51.941Z,22.33
2022-12-24T19:36:55.007Z,32.40
2022-12-24T19:41:57.860Z,24.00
2022-12-24T19:47:00.707Z,20.87
2022-12-24T19:52:03.677Z,28.47
2022-12-24T19:57:06.614Z,25.23
2022-12-24T20:02:11.504Z,22.73
2022-12-24T20:07:14.443Z,20.53
2022-12-24T20:12:17.379Z,25.53
2022-12-24T20:17:20.265Z,20.87
2022-12-24T20:22:23.093Z,21.03
2022-12-24T20:27:25.927Z,21.13
2022-12-24T20:32:29.670Z,25.97
2022-12-24T20:37:32.627Z,28.63
2022-12-24T20:42:35.451Z,24.17
2022-12-24T20:47:39.244Z,25.83
2022-12-24T20:52:42.414Z,27.13
2022-12-24T20:57:47.777Z,29.50
2022-12-24T21:02:50.758Z,23.13
2022-12-24T21:07:53.708Z,26.47
2022-12-24T21:12:59.543Z,35.47
2022-12-24T21:18:09.963Z,35.17
2022-12-24T21:23:12.856Z,30.27
2022-12-24T21:28:17.672Z,26.07
2022-12-24T21:33:20.845Z,25.40
2022-12-24T21:38:23.674Z,26.20
2022-12-24T21:43:26.697Z,28.13
2022-12-24T21:48:48.024Z,35.10
2022-12-24T21:54:09.735Z,29.80
2022-12-24T21:59:13.145Z,29.67
2022-12-24T22:04:16.640Z,27.87
2022-12-24T22:09:37.835Z,33.17
2022-12-24T22:14:40.731Z,27.63
2022-12-24T22:19:43.561Z,29.87
2022-12-24T22:24:46.473Z,22.47
2022-12-24T22:29:49.314Z,22.40
2022-12-24T22:34:53.728Z,29.37
2022-12-24T22:39:56.660Z,25.27
2022-12-24T22:45:00.357Z,28.33
2022-12-24T22:50:03.539Z,23.60
2022-12-24T22:55:06.773Z,24.33
2022-12-24T23:00:14.915Z,18.90
2022-12-24T23:05:17.990Z,25.67
2022-12-24T23:10:20.837Z,33.40
2022-12-24T23:15:23.672Z,25.60
2022-12-24T23:20:26.587Z,25.83
2022-12-24T23:25:29.484Z,20.87
2022-12-24T23:30:32.360Z,29.17
2022-12-24T23:35:35.249Z,23.13
2022-12-24T23:40:38.129Z,20.63
2022-12-24T23:45:50.288Z,25.03
2022-12-24T23:51:02.765Z,27.47
2022-12-24T23:56:06.190Z,24.03
